Time;durP1;ratioP1;P1;durP2;ratioP2;P2;SDS_P1;SDS_P2;PMS_P1;PMS_P2;Temp;Humidity;BMP_temperature;BMP_pressure;BME280_temperature;BME280_humidity;BME280_pressure;Samples;Min_cycle;Max_cycle;Signal;HPM_P1;HPM_P2
2023/06/22 00:00:48;;;;;;;5.10;4.30;;;22.80;1.00;;;;;;5057741;28;21017;-83
2023/06/22 00:03:15;;;;;;;5.50;4.23;;;22.80;1.00;;;;;;5058280;28;20477;-82
2023/06/22 00:05:45;;;;;;;7.17;4.50;;;22.80;1.00;;;;;;5058104;28;20492;-83
2023/06/22 00:08:12;;;;;;;5.63;4.20;;;22.80;99.90;;;;;;5058189;28;20460;-83
2023/06/22 00:10:39;;;;;;;5.73;4.87;;;22.80;17.10;;;;;;5057187;28;20466;-81
2023/06/22 00:13:06;;;;;;;8.30;5.03;;;22.80;1.00;;;;;;5057562;28;20444;-82
2023/06/22 00:15:34;;;;;;;6.60;4.40;;;22.80;99.90;;;;;;5057051;28;20494;-80
2023/06/22 00:18:02;;;;;;;6.40;4.47;;;22.80;1.00;;;;;;5058099;28;20455;-83
2023/06/22 00:20:29;;;;;;;5.40;4.83;;;22.80;99.90;;;;;;5057255;28;20456;-80
2023/06/22 00:22:58;;;;;;;7.03;5.00;;;22.70;99.90;;;;;;5058567;28;20447;-81
2023/06/22 00:25:26;;;;;;;6.70;5.20;;;22.70;8.40;;;;;;5057779;28;20492;-82
2023/06/22 00:27:53;;;;;;;16.57;4.20;;;22.70;99.90;;;;;;5057574;28;20466;-83
2023/06/22 00:30:20;;;;;;;7.50;4.20;;;22.70;99.90;;;;;;5056733;28;20467;-82
2023/06/22 00:32:47;;;;;;;5.53;4.57;;;22.70;99.90;;;;;;5056692;28;20456;-82
2023/06/22 00:35:14;;;;;;;5.13;4.37;;;22.70;99.90;;;;;;5060300;28;20526;-81
2023/06/22 00:37:42;;;;;;;8.67;5.10;;;22.70;1.00;;;;;;5059961;28;20833;-81
2023/06/22 00:40:11;;;;;;;5.80;4.87;;;22.70;99.90;;;;;;5061017;28;20877;-81
2023/06/22 00:42:38;;;;;;;7.40;4.70;;;22.70;99.90;;;;;;5061781;28;20513;-80
2023/06/22 00:45:07;;;;;;;7.43;5.50;;;22.70;99.90;;;;;;5059711;28;21459;-82
2023/06/22 00:47:35;;;;;;;7.90;5.13;;;22.60;1.00;;;;;;5059201;28;20579;-83
2023/06/22 00:50:02;;;;;;;6.80;5.50;;;22.60;99.90;;;;;;5059007;28;20466;-82
2023/06/22 00:52:33;;;;;;;7.23;5.73;;;22.60;99.90;;;;;;5059948;28;20460;-82
2023/06/22 00:55:02;;;;;;;5.97;4.47;;;22.60;99.90;;;;;;5059053;28;20495;-82
2023/06/22 00:57:31;;;;;;;7.43;5.10;;;22.60;99.90;;;;;;5059107;28;20483;-81
2023/06/22 00:59:58;;;;;;;8.10;5.80;;;22.60;18.90;;;;;;5059137;28;20461;-82
2023/06/22 01:02:25;;;;;;;8.30;5.30;;;22.50;99.90;;;;;;5056185;28;20543;-82
2023/06/22 01:04:51;;;;;;;6.60;5.90;;;22.50;1.00;;;;;;5059439;28;20454;-82
2023/06/22 01:07:27;;;;;;;8.53;6.03;;;22.50;1.00;;;;;;5058682;28;20491;-82
2023/06/22 01:10:00;;;;;;;7.80;6.27;;;22.50;1.00;;;;;;5058654;28;20467;-81
2023/06/22 01:12:29;;;;;;;8.97;6.67;;;22.40;1.00;;;;;;5058941;28;20479;-81
2023/06/22 01:15:05;;;;;;;7.20;5.63;;;22.40;1.00;;;;;;5046673;28;20471;-80
2023/06/22 01:17:33;;;;;;;6.93;5.60;;;22.40;99.90;;;;;;5051711;28;20836;-81
2023/06/22 01:20:05;;;;;;;8.20;6.80;;;22.40;1.00;;;;;;5058595;28;20456;-81
2023/06/22 01:22:40;;;;;;;7.13;6.10;;;22.40;99.90;;;;;;5057750;28;20505;-80
2023/06/22 01:25:12;;;;;;;7.60;6.27;;;22.30;99.90;;;;;;5059493;28;20448;-81
2023/06/22 01:27:51;;;;;;;8.53;6.77;;;22.30;1.00;;;;;;5060234;28;20503;-81
2023/06/22 01:30:20;;;;;;;10.47;6.97;;;22.20;99.90;;;;;;5060479;28;20491;-81
2023/06/22 01:32:48;;;;;;;8.70;6.90;;;22.20;99.90;;;;;;5072588;28;20456;-81
2023/06/22 01:35:16;;;;;;;8.30;6.97;;;22.10;99.90;;;;;;5060624;28;20456;-81
2023/06/22 01:37:42;;;;;;;7.70;6.90;;;22.10;99.90;;;;;;5061332;28;20543;-81
2023/06/22 01:40:10;;;;;;;9.50;7.60;;;22.10;1.00;;;;;;5060909;28;20502;-81
2023/06/22 01:42:38;;;;;;;10.13;7.27;;;22.00;1.00;;;;;;5060538;28;20470;-81
2023/06/22 01:45:07;;;;;;;6.93;6.23;;;22.00;99.90;;;;;;5061540;28;20464;-81
2023/06/22 01:47:35;;;;;;;9.43;7.20;;;22.00;99.90;;;;;;5062642;28;20874;-81
2023/06/22 01:50:02;;;;;;;7.70;6.40;;;22.00;47.70;;;;;;5067423;28;20550;-81
2023/06/22 01:52:29;;;;;;;9.43;7.70;;;21.90;99.90;;;;;;5063753;28;20877;-81
2023/06/22 01:54:57;;;;;;;8.27;7.47;;;21.90;1.00;;;;;;5062533;28;20462;-81
2023/06/22 01:57:24;;;;;;;10.50;9.30;;;21.90;99.90;;;;;;5069120;28;20471;-81
2023/06/22 02:00:01;;;;;;;9.77;8.27;;;21.90;1.00;;;;;;5063223;28;20463;-80
2023/06/22 02:02:33;;;;;;;8.50;7.50;;;21.90;99.90;;;;;;5063475;28;20462;-80
2023/06/22 02:05:06;;;;;;;9.77;7.67;;;21.90;1.00;;;;;;5063562;28;20456;-81
2023/06/22 02:07:40;;;;;;;8.60;7.50;;;21.90;1.00;;;;;;5062925;28;20495;-81
2023/06/22 02:10:08;;;;;;;8.87;7.60;;;22.00;1.00;;;;;;5063996;28;20466;-81
2023/06/22 02:12:37;;;;;;;8.87;7.53;;;22.00;99.90;;;;;;5061428;28;20512;-81
2023/06/22 02:15:05;;;;;;;9.97;7.33;;;22.00;1.00;;;;;;5063238;28;20452;-81
2023/06/22 02:17:33;;;;;;;7.33;6.60;;;21.90;1.00;;;;;;5063515;28;20478;-81
2023/06/22 02:20:04;;;;;;;10.20;7.67;;;22.00;1.00;;;;;;5065389;28;20459;-81
2023/06/22 02:22:31;;;;;;;9.47;7.50;;;22.00;1.00;;;;;;5063517;28;21026;-81
2023/06/22 02:24:58;;;;;;;8.83;7.53;;;22.00;99.90;;;;;;5063934;28;20483;-81
2023/06/22 02:27:25;;;;;;;9.73;7.90;;;22.00;99.90;;;;;;5062284;28;20546;-80
2023/06/22 02:29:52;;;;;;;9.77;8.40;;;22.00;99.90;;;;;;5064880;28;20462;-81
2023/06/22 02:32:18;;;;;;;8.83;6.70;;;22.00;1.00;;;;;;5057307;28;20473;-81
2023/06/22 02:34:47;;;;;;;9.23;7.37;;;22.00;99.90;;;;;;5063941;28;20538;-81
2023/06/22 02:37:16;;;;;;;8.70;7.80;;;22.00;99.90;;;;;;5062099;28;20499;-81
2023/06/22 02:39:42;;;;;;;9.13;8.20;;;22.00;5.80;;;;;;5062661;28;20490;-81
2023/06/22 02:42:10;;;;;;;9.03;8.10;;;21.90;99.90;;;;;;5062893;28;20547;-81
2023/06/22 02:44:37;;;;;;;8.90;8.00;;;22.00;99.90;;;;;;5064397;28;20456;-81
2023/06/22 02:47:04;;;;;;;12.73;8.80;;;22.00;99.90;;;;;;5062170;28;20496;-80
2023/06/22 02:49:31;;;;;;;10.43;8.93;;;22.00;99.90;;;;;;5064895;28;20846;-81
2023/06/22 02:51:58;;;;;;;9.87;8.23;;;21.90;1.00;;;;;;5064126;28;20460;-81
2023/06/22 02:54:27;;;;;;;11.43;8.00;;;21.90;99.90;;;;;;5063002;28;20467;-80
2023/06/22 02:56:53;;;;;;;8.70;7.80;;;22.00;99.90;;;;;;5059829;28;20475;-79
2023/06/22 02:59:23;;;;;;;11.90;8.80;;;22.00;1.00;;;;;;5060969;28;20455;-80
2023/06/22 03:01:50;;;;;;;12.67;9.87;;;22.00;1.00;;;;;;5061487;28;20484;-80
2023/06/22 03:04:17;;;;;;;9.97;8.97;;;21.90;1.00;;;;;;5061801;28;20444;-80
2023/06/22 03:06:44;;;;;;;9.83;8.83;;;21.90;99.90;;;;;;5059476;28;20503;-80
2023/06/22 03:09:10;;;;;;;10.30;9.07;;;22.00;99.90;;;;;;5058978;28;20892;-80
2023/06/22 03:11:39;;;;;;;10.00;8.87;;;21.90;99.90;;;;;;5057762;28;20452;-80
2023/06/22 03:14:05;;;;;;;9.57;8.57;;;21.90;1.00;;;;;;5055943;28;20452;-80
2023/06/22 03:16:32;;;;;;;10.80;9.67;;;21.90;1.00;;;;;;5055926;28;20567;-79
2023/06/22 03:18:59;;;;;;;10.37;9.23;;;21.90;1.00;;;;;;5056464;28;20955;-80
2023/06/22 03:21:28;;;;;;;9.97;8.60;;;21.90;1.00;;;;;;5057785;28;20459;-80
2023/06/22 03:23:55;;;;;;;10.30;8.97;;;21.80;1.00;;;;;;5057583;28;20458;-81
2023/06/22 03:26:23;;;;;;;10.63;8.80;;;21.70;99.50;;;;;;5057004;28;20493;-80
2023/06/22 03:28:51;;;;;;;13.03;8.83;;;21.70;99.90;;;;;;5057178;28;20506;-80
2023/06/22 03:31:21;;;;;;;12.47;10.73;;;21.60;99.90;;;;;;5057035;28;20460;-80
2023/06/22 03:33:48;;;;;;;10.50;9.50;;;21.70;99.90;;;;;;5057835;28;20513;-80
2023/06/22 03:36:16;;;;;;;10.93;9.83;;;21.60;1.00;;;;;;5053393;28;21016;-80
2023/06/22 03:38:43;;;;;;;12.47;10.57;;;21.60;1.00;;;;;;5056529;28;20456;-80
2023/06/22 03:41:09;;;;;;;11.17;10.07;;;21.60;1.00;;;;;;5056800;28;20843;-80
2023/06/22 03:43:36;;;;;;;11.67;10.57;;;21.50;99.90;;;;;;5058531;28;20456;-81
2023/06/22 03:46:04;;;;;;;11.80;10.60;;;21.40;99.90;;;;;;5058149;28;20575;-81
2023/06/22 03:48:31;;;;;;;14.03;10.50;;;21.40;99.90;;;;;;5064883;28;20456;-84
2023/06/22 03:50:59;;;;;;;11.90;10.27;;;21.40;99.90;;;;;;5062746;28;20444;-82
2023/06/22 03:53:26;;;;;;;11.83;10.03;;;21.40;99.90;;;;;;5058859;28;20447;-82
2023/06/22 03:55:53;;;;;;;11.70;10.50;;;21.40;99.90;;;;;;5061978;28;20579;-80
2023/06/22 03:58:21;;;;;;;15.33;11.17;;;21.40;99.90;;;;;;5061119;28;20547;-82
2023/06/22 04:00:49;;;;;;;17.73;11.60;;;21.40;99.90;;;;;;5048244;28;20453;-81
2023/06/22 04:03:18;;;;;;;13.67;10.87;;;21.40;99.90;;;;;;5058472;28;20467;-81
2023/06/22 04:05:46;;;;;;;11.33;10.23;;;21.40;99.90;;;;;;5045011;28;20506;-80
2023/06/22 04:08:14;;;;;;;12.13;10.93;;;21.40;99.90;;;;;;5059449;28;20486;-80
2023/06/22 04:10:41;;;;;;;11.60;10.50;;;21.40;99.90;;;;;;5062409;28;20459;-82
2023/06/22 04:13:08;;;;;;;13.60;12.20;;;21.40;1.00;;;;;;5061153;28;20531;-81
2023/06/22 04:15:34;;;;;;;14.97;12.67;;;21.40;1.00;;;;;;5061249;28;20917;-79
2023/06/22 04:18:01;;;;;;;11.60;10.50;;;21.40;99.90;;;;;;5059093;28;20450;-79
2023/06/22 04:20:31;;;;;;;12.67;11.33;;;21.50;1.00;;;;;;5064376;28;20453;-79
2023/06/22 04:22:58;;;;;;;13.87;12.40;;;21.50;1.00;;;;;;5066693;28;20452;-80
2023/06/22 04:25:24;;;;;;;14.07;12.67;;;21.50;1.00;;;;;;5066157;28;20452;-80
2023/06/22 04:27:51;;;;;;;15.23;12.20;;;21.50;1.00;;;;;;5065281;28;20475;-80
2023/06/22 04:30:18;;;;;;;13.60;11.20;;;21.50;99.90;;;;;;5064879;28;20471;-80
2023/06/22 04:32:45;;;;;;;15.20;13.60;;;21.50;1.00;;;;;;5065286;28;20466;-80
2023/06/22 04:35:15;;;;;;;14.07;12.57;;;21.50;1.00;;;;;;5065113;28;20448;-79
2023/06/22 04:37:45;;;;;;;14.13;11.73;;;21.60;99.90;;;;;;5064050;28;20459;-80
2023/06/22 04:40:14;;;;;;;14.80;13.20;;;21.60;82.80;;;;;;5065762;28;20464;-82
2023/06/22 04:42:52;;;;;;;13.37;12.07;;;21.60;99.90;;;;;;5062699;28;20456;-79
2023/06/22 04:45:20;;;;;;;12.93;11.63;;;21.60;99.90;;;;;;5062996;28;20459;-81
2023/06/22 04:47:46;;;;;;;13.27;11.77;;;21.60;99.90;;;;;;5063945;28;20480;-81
2023/06/22 04:50:13;;;;;;;13.50;11.03;;;21.60;99.90;;;;;;5063787;28;20523;-80
2023/06/22 04:52:40;;;;;;;12.90;11.63;;;21.60;1.00;;;;;;5063695;28;20456;-81
2023/06/22 04:55:09;;;;;;;13.83;11.93;;;21.60;1.00;;;;;;5063296;28;20447;-79
2023/06/22 04:57:39;;;;;;;12.83;11.53;;;21.70;1.00;;;;;;5058553;28;20547;-81
2023/06/22 05:00:12;;;;;;;12.73;11.40;;;21.60;1.00;;;;;;5060212;28;20479;-81
2023/06/22 05:02:39;;;;;;;11.80;10.60;;;21.70;1.00;;;;;;5051491;28;20452;-80
2023/06/22 05:05:07;;;;;;;11.73;10.63;;;21.70;1.00;;;;;;5059252;28;20966;-80
2023/06/22 05:07:34;;;;;;;12.50;11.30;;;21.70;1.00;;;;;;5060776;28;20484;-81
2023/06/22 05:10:01;;;;;;;12.93;10.83;;;21.60;77.00;;;;;;5057814;28;20448;-82
2023/06/22 05:12:31;;;;;;;12.73;11.43;;;21.70;1.00;;;;;;5058035;28;20452;-80
2023/06/22 05:14:58;;;;;;;12.47;11.20;;;21.60;1.00;;;;;;5058226;28;20454;-79
2023/06/22 05:17:25;;;;;;;12.23;11.03;;;21.70;1.00;;;;;;5057052;28;20477;-78
2023/06/22 05:19:52;;;;;;;14.90;11.60;;;21.70;99.90;;;;;;5055750;28;20452;-78
2023/06/22 05:22:19;;;;;;;14.23;12.40;;;21.60;1.00;;;;;;5057632;28;20635;-80
2023/06/22 05:24:46;;;;;;;12.57;11.27;;;21.60;1.00;;;;;;5057070;28;20785;-81
2023/06/22 05:27:13;;;;;;;12.43;11.20;;;21.60;99.90;;;;;;5056067;28;20490;-79
2023/06/22 05:29:42;;;;;;;12.77;11.47;;;21.60;99.90;;;;;;5070719;28;20984;-78
2023/06/22 05:32:09;;;;;;;18.30;13.40;;;21.60;99.90;;;;;;5070583;28;20509;-79
2023/06/22 05:34:36;;;;;;;12.87;10.97;;;21.50;1.00;;;;;;5055014;28;20452;-79
2023/06/22 05:37:03;;;;;;;12.83;11.60;;;21.60;99.90;;;;;;5056003;28;20883;-78
2023/06/22 05:39:30;;;;;;;17.87;11.73;;;21.60;1.00;;;;;;5056482;28;20455;-82
2023/06/22 05:41:57;;;;;;;11.87;10.67;;;21.60;1.00;;;;;;5055391;28;20464;-79
2023/06/22 05:44:23;;;;;;;16.13;12.37;;;21.60;1.00;;;;;;5055622;28;20818;-79
2023/06/22 05:46:52;;;;;;;13.87;12.10;;;21.60;23.80;;;;;;5055346;28;20586;-80
2023/06/22 05:49:18;;;;;;;13.67;11.43;;;21.70;99.90;;;;;;5057722;28;20598;-80
2023/06/22 05:51:45;;;;;;;11.40;10.23;;;21.70;99.90;;;;;;5058701;28;20466;-83
2023/06/22 05:54:13;;;;;;;15.20;10.50;;;21.70;99.90;;;;;;5059750;28;20555;-84
2023/06/22 05:56:40;;;;;;;13.17;11.77;;;21.80;99.90;;;;;;5060162;28;20570;-83
2023/06/22 05:59:06;;;;;;;13.80;11.90;;;21.80;99.90;;;;;;5060889;28;20455;-83
2023/06/22 06:01:35;;;;;;;11.87;10.63;;;21.90;1.00;;;;;;5060607;28;20530;-82
2023/06/22 06:04:04;;;;;;;14.23;11.87;;;21.90;99.90;;;;;;5061897;28;20523;-83
2023/06/22 06:06:30;;;;;;;11.03;9.93;;;22.00;99.90;;;;;;5060631;28;20483;-84
2023/06/22 06:08:58;;;;;;;13.20;10.67;;;22.00;99.90;;;;;;5060657;28;20519;-85
2023/06/22 06:11:25;;;;;;;11.87;10.67;;;22.00;99.90;;;;;;5060627;28;20452;-84
2023/06/22 06:13:52;;;;;;;16.20;11.10;;;22.10;99.90;;;;;;5060727;28;20451;-83
2023/06/22 06:16:19;;;;;;;12.90;10.77;;;22.10;99.90;;;;;;5059811;28;20563;-84
2023/06/22 06:18:46;;;;;;;11.77;10.20;;;22.10;99.90;;;;;;5060680;28;20498;-84
2023/06/22 06:21:14;;;;;;;13.47;11.87;;;22.20;74.40;;;;;;5059847;28;20447;-84
2023/06/22 06:23:42;;;;;;;13.27;11.30;;;22.20;99.90;;;;;;5060859;28;20448;-84
2023/06/22 06:26:08;;;;;;;11.70;10.53;;;22.20;6.20;;;;;;5060313;28;20537;-84
2023/06/22 06:28:36;;;;;;;10.87;9.80;;;22.30;1.00;;;;;;5060295;28;20483;-85
2023/06/22 06:31:06;;;;;;;9.87;8.87;;;22.30;1.00;;;;;;5061080;28;20951;-84
2023/06/22 06:33:33;;;;;;;10.20;9.20;;;22.30;99.90;;;;;;5061186;28;20471;-85
2023/06/22 06:36:03;;;;;;;12.80;11.37;;;22.30;99.90;;;;;;5060027;28;20471;-85
2023/06/22 06:38:31;;;;;;;13.23;9.27;;;22.30;1.00;;;;;;5043786;28;20877;-83
2023/06/22 06:40:58;;;;;;;15.10;11.20;;;22.30;99.90;;;;;;5058865;28;20448;-83
2023/06/22 06:43:25;;;;;;;13.23;11.07;;;22.30;99.90;;;;;;5060674;28;20519;-83
2023/06/22 06:45:52;;;;;;;12.20;10.33;;;22.40;99.90;;;;;;5059456;28;20482;-83
2023/06/22 06:48:19;;;;;;;13.73;11.30;;;22.40;99.90;;;;;;5061165;28;20576;-84
2023/06/22 06:50:46;;;;;;;11.77;10.40;;;22.40;99.90;;;;;;5059795;28;20807;-84
2023/06/22 06:53:12;;;;;;;11.30;9.87;;;22.50;99.90;;;;;;5050958;28;20523;-83
2023/06/22 06:55:41;;;;;;;12.67;10.53;;;22.50;1.00;;;;;;5061832;28;20476;-84
2023/06/22 06:58:09;;;;;;;12.00;10.80;;;22.60;72.60;;;;;;5061143;28;20811;-84
2023/06/22 07:00:36;;;;;;;12.23;11.03;;;22.70;99.90;;;;;;5060670;28;20452;-83
2023/06/22 07:03:03;;;;;;;12.20;11.00;;;22.80;1.00;;;;;;5071282;28;20454;-83
2023/06/22 07:05:30;;;;;;;11.10;10.00;;;22.80;1.00;;;;;;5044306;28;20493;-81
2023/06/22 07:07:57;;;;;;;10.63;9.53;;;22.90;1.00;;;;;;5037317;28;20490;-82
2023/06/22 07:10:24;;;;;;;11.80;10.60;;;22.90;1.00;;;;;;5060506;28;20897;-84
2023/06/22 07:12:52;;;;;;;13.00;10.33;;;22.90;99.90;;;;;;5059834;28;20520;-83
2023/06/22 07:15:19;;;;;;;13.73;10.30;;;22.90;99.90;;;;;;5058262;28;20874;-81
2023/06/22 07:17:46;;;;;;;12.80;9.93;;;22.90;99.90;;;;;;5059939;28;20531;-84
2023/06/22 07:20:13;;;;;;;11.80;10.30;;;22.90;6.60;;;;;;5059603;28;20502;-82
2023/06/22 07:22:41;;;;;;;11.47;10.27;;;22.90;32.10;;;;;;5059249;28;20515;-84
2023/06/22 07:25:11;;;;;;;16.03;9.73;;;22.80;1.00;;;;;;5058947;28;20452;-82
2023/06/22 07:27:39;;;;;;;13.93;10.70;;;22.90;99.90;;;;;;5059897;28;20498;-83
2023/06/22 07:30:09;;;;;;;16.10;10.87;;;22.90;99.90;;;;;;5061794;28;20464;-84
2023/06/22 07:32:36;;;;;;;12.10;9.50;;;22.90;1.00;;;;;;5061700;28;20479;-84
2023/06/22 07:35:04;;;;;;;10.93;9.83;;;22.90;1.00;;;;;;5061948;28;20520;-84
2023/06/22 07:37:33;;;;;;;12.23;10.70;;;23.00;99.90;;;;;;5057573;28;20490;-85
2023/06/22 07:39:59;;;;;;;10.83;9.53;;;23.00;1.00;;;;;;5058113;28;20478;-83
2023/06/22 07:42:39;;;;;;;11.87;10.63;;;23.00;99.90;;;;;;5058440;28;20486;-83
2023/06/22 07:45:08;;;;;;;11.30;10.17;;;23.00;1.00;;;;;;5067496;28;20487;-82
2023/06/22 07:47:36;;;;;;;12.80;11.50;;;23.10;99.90;;;;;;5064136;28;20993;-84
2023/06/22 07:50:03;;;;;;;13.63;11.80;;;23.20;99.90;;;;;;5059777;28;20551;-82
2023/06/22 07:52:31;;;;;;;14.33;12.80;;;23.20;1.00;;;;;;5055673;28;20988;-82
2023/06/22 07:54:58;;;;;;;14.70;13.20;;;23.30;99.90;;;;;;5054832;28;20462;-84
2023/06/22 07:57:31;;;;;;;13.57;12.00;;;23.30;99.90;;;;;;5049402;28;21042;-83
2023/06/22 07:59:59;;;;;;;17.20;14.57;;;23.30;99.90;;;;;;5051835;28;20452;-82
2023/06/22 08:02:27;;;;;;;16.13;12.10;;;23.30;99.90;;;;;;5050667;28;20482;-83
2023/06/22 08:04:54;;;;;;;15.53;14.00;;;23.30;99.90;;;;;;5058244;28;20487;-83
2023/06/22 08:07:21;;;;;;;14.60;12.03;;;23.30;60.40;;;;;;5057414;28;21098;-82
2023/06/22 08:09:49;;;;;;;15.50;13.63;;;23.30;99.90;;;;;;5058266;28;20546;-81
2023/06/22 08:12:16;;;;;;;13.70;12.30;;;23.20;99.90;;;;;;5054829;28;20457;-82
2023/06/22 08:14:44;;;;;;;15.43;13.90;;;23.20;99.90;;;;;;5056762;28;20464;-83
2023/06/22 08:17:11;;;;;;;14.37;12.97;;;23.10;99.90;;;;;;5057383;28;20472;-82
2023/06/22 08:19:40;;;;;;;13.93;12.53;;;23.00;99.90;;;;;;5059448;28;20936;-82
2023/06/22 08:22:07;;;;;;;15.17;13.57;;;23.00;99.90;;;;;;5058169;28;20549;-83
2023/06/22 08:24:34;;;;;;;17.77;13.37;;;23.00;1.00;;;;;;5058399;28;20466;-81
2023/06/22 08:27:01;;;;;;;16.83;13.50;;;22.90;1.00;;;;;;5060331;28;20539;-85
2023/06/22 08:29:27;;;;;;;15.20;13.67;;;23.00;1.00;;;;;;5063258;28;20559;-85
2023/06/22 08:31:56;;;;;;;15.40;14.00;;;23.00;1.00;;;;;;5057015;28;20476;-85
2023/06/22 08:34:25;;;;;;;14.63;13.23;;;23.00;1.00;;;;;;5059357;28;20458;-84
2023/06/22 08:36:53;;;;;;;15.03;13.43;;;23.10;1.00;;;;;;5061567;28;20555;-85
2023/06/22 08:39:20;;;;;;;16.53;13.73;;;23.20;1.00;;;;;;5061421;28;20542;-85
2023/06/22 08:41:47;;;;;;;15.77;14.37;;;23.30;1.00;;;;;;5065421;28;20513;-83
2023/06/22 08:44:14;;;;;;;15.20;13.37;;;23.30;1.00;;;;;;5062769;28;20463;-85
2023/06/22 08:46:41;;;;;;;16.67;15.23;;;23.40;99.90;;;;;;5064546;28;20539;-83
2023/06/22 08:49:09;;;;;;;16.77;15.17;;;23.50;99.90;;;;;;5062146;28;20488;-85
2023/06/22 08:51:36;;;;;;;15.27;13.87;;;23.50;99.90;;;;;;5060583;28;20609;-85
2023/06/22 08:54:04;;;;;;;16.60;13.67;;;23.50;99.90;;;;;;5060221;28;20950;-84
2023/06/22 08:56:31;;;;;;;15.70;14.20;;;23.60;99.90;;;;;;5085502;28;20481;-85
2023/06/22 08:59:00;;;;;;;14.40;12.90;;;23.50;99.90;;;;;;5072017;28;20555;-85
2023/06/22 09:01:27;;;;;;;15.13;13.53;;;23.60;1.00;;;;;;5061001;28;20455;-85
2023/06/22 09:03:57;;;;;;;16.43;14.80;;;23.50;99.90;;;;;;5061087;28;21037;-85
2023/06/22 09:06:24;;;;;;;16.07;14.47;;;23.50;99.90;;;;;;5062801;28;20597;-85
2023/06/22 09:08:51;;;;;;;15.80;14.07;;;23.60;99.90;;;;;;5064231;28;20665;-85
2023/06/22 09:11:19;;;;;;;14.53;13.13;;;23.60;99.90;;;;;;5063089;28;20555;-86
2023/06/22 09:13:46;;;;;;;16.40;14.70;;;23.60;99.90;;;;;;5064074;28;20523;-85
2023/06/22 09:16:13;;;;;;;18.27;14.00;;;23.60;99.90;;;;;;5059641;28;20522;-86
2023/06/22 09:18:41;;;;;;;18.10;15.97;;;23.70;99.90;;;;;;5061863;28;20887;-85
2023/06/22 09:21:08;;;;;;;17.07;15.40;;;23.70;99.90;;;;;;5060197;28;20470;-86
2023/06/22 09:23:34;;;;;;;15.73;14.30;;;23.80;99.90;;;;;;5060416;28;20464;-86
2023/06/22 09:26:02;;;;;;;19.07;15.37;;;23.90;99.90;;;;;;5060222;28;20487;-86
2023/06/22 09:28:30;;;;;;;17.40;15.60;;;24.00;99.90;;;;;;5058141;28;20484;-85
2023/06/22 09:30:58;;;;;;;18.20;14.50;;;24.10;99.90;;;;;;5058654;28;20456;-85
2023/06/22 09:33:24;;;;;;;15.07;13.57;;;24.40;1.00;;;;;;5064418;28;20463;-85
2023/06/22 09:35:51;;;;;;;16.07;14.53;;;24.60;99.90;;;;;;5064197;28;20566;-85
2023/06/22 09:38:18;;;;;;;16.37;14.77;;;24.80;99.90;;;;;;5066573;28;20456;-84
2023/06/22 09:40:45;;;;;;;16.23;14.73;;;24.90;99.90;;;;;;5059297;28;20450;-85
2023/06/22 09:43:12;;;;;;;17.43;15.53;;;25.20;99.90;;;;;;5056647;28;20494;-86
2023/06/22 09:45:40;;;;;;;16.23;14.50;;;25.50;1.00;;;;;;5057340;28;20482;-85
2023/06/22 09:48:09;;;;;;;14.57;13.13;;;25.80;99.90;;;;;;5057373;28;20494;-85
2023/06/22 09:50:36;;;;;;;15.93;14.40;;;26.20;10.90;;;;;;5056638;28;20464;-86
2023/06/22 09:53:03;;;;;;;14.43;13.13;;;26.60;72.20;;;;;;5056245;28;21002;-86
2023/06/22 09:55:30;;;;;;;18.37;16.50;;;26.80;1.00;;;;;;5055508;28;20448;-86
2023/06/22 09:57:56;;;;;;;14.60;13.30;;;26.80;99.90;;;;;;5055912;28;20451;-86
2023/06/22 10:00:23;;;;;;;14.10;12.60;;;26.80;99.90;;;;;;5055059;28;20456;-87
2023/06/22 10:02:51;;;;;;;12.63;11.43;;;26.80;99.90;;;;;;5057209;28;20559;-87
2023/06/22 10:05:18;;;;;;;12.37;11.17;;;26.90;1.00;;;;;;5054946;28;20519;-87
2023/06/22 10:07:46;;;;;;;11.50;10.30;;;26.90;99.90;;;;;;5055477;28;20447;-87
2023/06/22 10:10:14;;;;;;;10.73;9.73;;;26.90;1.00;;;;;;5066960;28;20491;-87
2023/06/22 10:12:44;;;;;;;10.60;9.60;;;27.00;99.90;;;;;;5070848;28;20471;-86
2023/06/22 10:15:11;;;;;;;12.73;11.43;;;27.10;1.00;;;;;;5069428;28;20432;-87
2023/06/22 10:17:38;;;;;;;11.67;10.50;;;27.20;99.90;;;;;;5067373;28;20480;-86
2023/06/22 10:20:11;;;;;;;11.17;10.10;;;27.20;1.00;;;;;;5063293;28;21860;-86
2023/06/22 10:22:39;;;;;;;10.60;9.70;;;27.20;1.00;;;;;;5061268;28;20448;-87
2023/06/22 10:25:07;;;;;;;10.87;9.77;;;27.30;1.00;;;;;;5059951;28;20471;-86
2023/06/22 10:27:33;;;;;;;10.47;9.43;;;27.40;1.00;;;;;;5057327;28;20827;-87
2023/06/22 10:30:00;;;;;;;10.23;9.03;;;27.50;1.00;;;;;;5057010;28;20491;-87
2023/06/22 10:32:28;;;;;;;10.90;9.60;;;27.60;99.90;;;;;;5057994;28;20543;-86
2023/06/22 10:34:55;;;;;;;9.50;8.60;;;27.60;1.00;;;;;;5059930;28;20818;-87
2023/06/22 10:37:23;;;;;;;9.80;8.77;;;27.70;1.00;;;;;;5060630;28;20547;-87
2023/06/22 10:39:50;;;;;;;8.90;8.00;;;27.80;1.00;;;;;;5059226;28;20528;-87
2023/06/22 10:42:17;;;;;;;8.40;7.60;;;27.80;1.00;;;;;;5059587;28;20438;-86
2023/06/22 10:44:44;;;;;;;8.70;7.80;;;27.80;28.80;;;;;;5055701;28;20570;-86
2023/06/22 10:47:11;;;;;;;6.87;6.17;;;27.90;91.00;;;;;;5058123;28;20986;-88
2023/06/22 10:49:39;;;;;;;8.83;7.00;;;27.90;99.90;;;;;;5057693;28;20487;-86
2023/06/22 10:52:07;;;;;;;7.40;6.60;;;27.90;1.00;;;;;;5056954;28;20460;-85
2023/06/22 10:54:36;;;;;;;7.20;6.60;;;27.90;99.90;;;;;;5056246;28;20466;-87
2023/06/22 10:57:02;;;;;;;8.33;7.50;;;27.70;99.90;;;;;;5057030;28;20480;-86
2023/06/22 10:59:30;;;;;;;7.80;7.10;;;27.70;1.00;;;;;;5061698;28;20454;-87
2023/06/22 11:01:57;;;;;;;9.50;7.03;;;27.60;99.90;;;;;;5061675;28;20436;-87
2023/06/22 11:04:24;;;;;;;9.37;7.80;;;27.50;1.00;;;;;;5061118;28;20505;-86
2023/06/22 11:06:51;;;;;;;7.63;6.83;;;27.30;1.00;;;;;;5052076;28;20931;-87
2023/06/22 11:09:20;;;;;;;8.57;7.77;;;27.10;1.00;;;;;;5052227;28;20494;-86
2023/06/22 11:11:50;;;;;;;9.03;8.13;;;26.90;1.00;;;;;;5060322;28;20522;-86
2023/06/22 11:14:17;;;;;;;7.97;7.23;;;26.70;1.00;;;;;;5057244;28;20894;-86
2023/06/22 11:16:44;;;;;;;8.73;7.87;;;26.60;17.30;;;;;;5055556;28;20486;-86
2023/06/22 11:19:11;;;;;;;8.27;7.40;;;26.40;99.90;;;;;;5047949;28;20869;-85
2023/06/22 11:21:38;;;;;;;8.37;7.57;;;26.30;99.90;;;;;;5053598;28;20483;-87
2023/06/22 11:24:05;;;;;;;9.23;8.30;;;26.20;1.00;;;;;;5054309;28;20975;-86
2023/06/22 11:26:32;;;;;;;9.10;8.20;;;26.10;99.90;;;;;;5064218;28;20858;-85
2023/06/22 11:29:01;;;;;;;9.03;8.13;;;26.00;1.00;;;;;;5056267;28;21006;-86
2023/06/22 11:31:28;;;;;;;10.10;9.10;;;25.80;99.90;;;;;;5057633;28;20442;-86
2023/06/22 11:33:54;;;;;;;11.73;10.33;;;25.70;1.00;;;;;;5058446;28;20529;-85
2023/06/22 11:36:21;;;;;;;14.53;12.47;;;25.60;1.00;;;;;;5053720;28;20566;-86
2023/06/22 11:38:49;;;;;;;13.87;12.37;;;25.50;99.90;;;;;;5059658;28;20871;-85
2023/06/22 11:41:16;;;;;;;15.97;14.30;;;25.30;99.90;;;;;;5054768;28;20539;-85
2023/06/22 11:43:43;;;;;;;17.97;16.23;;;25.20;1.00;;;;;;5052855;28;20523;-86
2023/06/22 11:46:11;;;;;;;19.13;16.97;;;25.00;1.00;;;;;;5056978;28;20546;-85
2023/06/22 11:48:38;;;;;;;19.77;17.73;;;24.90;1.00;;;;;;5058012;28;20480;-84
2023/06/22 11:51:06;;;;;;;25.00;22.37;;;24.70;1.00;;;;;;5056100;28;20470;-84
2023/06/22 11:53:34;;;;;;;22.73;20.40;;;24.50;1.00;;;;;;5057482;28;20460;-84
2023/06/22 11:56:01;;;;;;;24.70;19.90;;;24.40;1.80;;;;;;5059605;28;21006;-84
2023/06/22 11:58:28;;;;;;;24.63;22.10;;;24.10;41.90;;;;;;5056075;28;20458;-84
2023/06/22 12:00:55;;;;;;;24.30;21.70;;;24.10;96.80;;;;;;5065617;28;20452;-84
2023/06/22 12:03:23;;;;;;;22.83;20.40;;;24.00;99.90;;;;;;5059282;28;20951;-85
2023/06/22 12:05:51;;;;;;;26.90;24.10;;;23.90;99.90;;;;;;5059713;28;20566;-85
2023/06/22 12:08:18;;;;;;;25.83;22.70;;;23.80;99.90;;;;;;5058854;28;20451;-86
2023/06/22 12:10:45;;;;;;;28.70;24.93;;;23.70;99.90;;;;;;5057589;28;20512;-86
2023/06/22 12:13:12;;;;;;;27.67;23.90;;;23.60;99.90;;;;;;5055748;28;20458;-87
2023/06/22 12:15:39;;;;;;;29.63;26.70;;;23.60;99.90;;;;;;5058156;28;20476;-86
2023/06/22 12:18:06;;;;;;;32.10;28.30;;;23.60;99.90;;;;;;5053541;28;20516;-86
2023/06/22 12:20:34;;;;;;;29.73;26.63;;;23.60;99.90;;;;;;5051958;28;20460;-86
2023/06/22 12:23:02;;;;;;;26.97;24.23;;;23.50;99.90;;;;;;5051886;28;20459;-86
2023/06/22 12:25:29;;;;;;;35.10;28.10;;;23.50;99.90;;;;;;5049677;28;20546;-85
2023/06/22 12:27:56;;;;;;;28.70;25.60;;;23.60;99.90;;;;;;5050528;28;20535;-85
2023/06/22 12:30:22;;;;;;;31.03;24.77;;;23.50;99.90;;;;;;5053173;28;20491;-85
2023/06/22 12:32:51;;;;;;;25.70;23.00;;;23.50;99.90;;;;;;5056612;28;20611;-86
2023/06/22 12:35:17;;;;;;;28.07;24.90;;;23.60;99.90;;;;;;5052069;28;20557;-85
2023/06/22 12:37:46;;;;;;;32.43;26.70;;;23.50;99.90;;;;;;5055060;28;20535;-86
2023/06/22 12:40:13;;;;;;;28.40;25.40;;;23.50;99.90;;;;;;5048714;28;21931;-85